Hovedside
METAR-TAF:

METAR-TAF

Lufthavner :

Portland-Hillsboro Airport

Hillsboro, Oregon, USA

breddegrad: 45-32-53N, lengdegrad: 122-57-16W, høyde over havet: 62 m

Gjeldene værobservasjon

Denne rapporten ble laget for 57 minutter siden, klokken 01:53 UTC
Vind 4 kt fra Nord
Temperatur 21°C
Luftfuktighet 38%
Trykk 1019 hPa
Sikt: 16.1 km
Skyfri himmel

METAR: KHIO 090153Z 36004KT 10SM CLR 21/06 A3009 RMK AO2 SLP189 T02110061

Tid: 19:50 (02:50 UTC)

Varsel

Denne rapporten ble laget for 3 timer og 30 minutter siden, klokken 23:20 UTC
Varsel gyldig fra 09. klokken 00 UTC til 09. klokken 24 UTC
Vind 5 kt fra Nord
Sikt: 10 km
Skyfri himmel
Fra 09. klokken 0600 UTC
Vind 2 kt fra skiftende retning
Sikt: 10 km
Skyfri himmel
Fra 09. klokken 2200 UTC
Vind 6 kt fra Nord
Sikt: 10 km
Skyfri himmel

TAF: KHIO 082320Z 0900/0924 36005KT P6SM SKC FM090600 VRB02KT P6SM SKC FM092200 01006KT P6SM SKC

Værobservasjoner og værvarsel for over 4000 flyplasser (METAR- og TAF-rapporter).

Tilgjengelige stasjoner er representert av de røde og gule prikkene på kartet.

Hold musepekeren over prikken for å se navnet på stasjonen.

Klikk så for å se værobservasjoner og -varsler.

For å forandre kartet kan du klikke på den grønne knappen med svart kryss for å zoome inn, på den grønne knappen med strek for å zoome ut, eller på de grønne pilene for å se tilstøtende kart.


METAR-TAF: